sensor_id;sensor_type;location;lat;lon;timestamp;temperature;humidity
21312;DHT22;18076;52.154;10.570;2023-05-08T00:02:16;8.40;99.90
21312;DHT22;18076;52.154;10.570;2023-05-08T00:04:41;8.30;99.90
21312;DHT22;18076;52.154;10.570;2023-05-08T00:07:07;8.30;99.90
21312;DHT22;18076;52.154;10.570;2023-05-08T00:09:32;8.30;99.90
21312;DHT22;18076;52.154;10.570;2023-05-08T00:11:58;8.20;99.90
21312;DHT22;18076;52.154;10.570;2023-05-08T00:14:23;8.20;99.90
21312;DHT22;18076;52.154;10.570;2023-05-08T00:16:49;8.20;99.90
21312;DHT22;18076;52.154;10.570;2023-05-08T00:19:15;8.10;99.90
21312;DHT22;18076;52.154;10.570;2023-05-08T00:21:40;8.10;99.90
21312;DHT22;18076;52.154;10.570;2023-05-08T00:24:06;8.10;99.90
21312;DHT22;18076;52.154;10.570;2023-05-08T00:26:31;8.10;99.90
21312;DHT22;18076;52.154;10.570;2023-05-08T00:28:57;8.10;99.90
21312;DHT22;18076;52.154;10.570;2023-05-08T00:31:23;8.10;99.90
21312;DHT22;18076;52.154;10.570;2023-05-08T00:33:48;8.20;99.90
21312;DHT22;18076;52.154;10.570;2023-05-08T00:36:14;8.10;99.90
21312;DHT22;18076;52.154;10.570;2023-05-08T00:38:40;8.10;99.90
21312;DHT22;18076;52.154;10.570;2023-05-08T00:41:05;8.10;99.90
21312;DHT22;18076;52.154;10.570;2023-05-08T00:43:31;8.00;99.90
21312;DHT22;18076;52.154;10.570;2023-05-08T00:45:58;8.00;99.90
21312;DHT22;18076;52.154;10.570;2023-05-08T00:48:27;8.00;99.90
21312;DHT22;18076;52.154;10.570;2023-05-08T00:50:52;7.90;99.90
21312;DHT22;18076;52.154;10.570;2023-05-08T00:53:19;7.90;99.90
21312;DHT22;18076;52.154;10.570;2023-05-08T00:55:46;7.80;99.90
21312;DHT22;18076;52.154;10.570;2023-05-08T00:58:13;7.80;99.90
21312;DHT22;18076;52.154;10.570;2023-05-08T01:00:40;7.80;99.90
21312;DHT22;18076;52.154;10.570;2023-05-08T01:03:06;7.70;99.90
21312;DHT22;18076;52.154;10.570;2023-05-08T01:05:31;7.70;99.90
21312;DHT22;18076;52.154;10.570;2023-05-08T01:07:57;7.60;99.90
21312;DHT22;18076;52.154;10.570;2023-05-08T01:10:23;7.60;99.90
21312;DHT22;18076;52.154;10.570;2023-05-08T01:12:55;7.60;99.90
21312;DHT22;18076;52.154;10.570;2023-05-08T01:15:28;7.60;99.90
21312;DHT22;18076;52.154;10.570;2023-05-08T01:18:01;7.60;99.90
21312;DHT22;18076;52.154;10.570;2023-05-08T01:20:31;7.50;99.90
21312;DHT22;18076;52.154;10.570;2023-05-08T01:25:45;7.40;99.90
21312;DHT22;18076;52.154;10.570;2023-05-08T01:33:51;7.40;99.90
21312;DHT22;18076;52.154;10.570;2023-05-08T01:36:22;7.40;99.90
21312;DHT22;18076;52.154;10.570;2023-05-08T01:38:52;7.40;99.90
21312;DHT22;18076;52.154;10.570;2023-05-08T01:41:22;7.40;99.90
21312;DHT22;18076;52.154;10.570;2023-05-08T01:43:51;7.40;99.90
21312;DHT22;18076;52.154;10.570;2023-05-08T01:46:25;7.40;99.90
21312;DHT22;18076;52.154;10.570;2023-05-08T01:49:10;7.40;99.90
21312;DHT22;18076;52.154;10.570;2023-05-08T01:51:44;7.40;99.90
21312;DHT22;18076;52.154;10.570;2023-05-08T01:54:11;7.40;99.90
21312;DHT22;18076;52.154;10.570;2023-05-08T01:56:39;7.40;99.90
21312;DHT22;18076;52.154;10.570;2023-05-08T01:59:06;7.40;99.90
21312;DHT22;18076;52.154;10.570;2023-05-08T02:01:32;7.40;99.90
21312;DHT22;18076;52.154;10.570;2023-05-08T02:03:59;7.40;99.90
21312;DHT22;18076;52.154;10.570;2023-05-08T02:06:25;7.40;99.90
21312;DHT22;18076;52.154;10.570;2023-05-08T02:08:51;7.40;99.90
21312;DHT22;18076;52.154;10.570;2023-05-08T02:11:17;7.30;99.90
21312;DHT22;18076;52.154;10.570;2023-05-08T02:13:44;7.30;99.90
21312;DHT22;18076;52.154;10.570;2023-05-08T02:16:11;7.30;99.90
21312;DHT22;18076;52.154;10.570;2023-05-08T02:18:37;7.20;99.90
21312;DHT22;18076;52.154;10.570;2023-05-08T02:21:04;7.20;99.90
21312;DHT22;18076;52.154;10.570;2023-05-08T02:23:31;7.20;99.90
21312;DHT22;18076;52.154;10.570;2023-05-08T02:25:57;7.20;99.90
21312;DHT22;18076;52.154;10.570;2023-05-08T02:28:23;7.10;99.90
21312;DHT22;18076;52.154;10.570;2023-05-08T02:30:50;7.10;99.90
21312;DHT22;18076;52.154;10.570;2023-05-08T02:33:16;7.10;99.90
21312;DHT22;18076;52.154;10.570;2023-05-08T02:35:42;7.10;99.90
21312;DHT22;18076;52.154;10.570;2023-05-08T02:38:09;7.10;99.90
21312;DHT22;18076;52.154;10.570;2023-05-08T02:40:35;7.10;99.90
21312;DHT22;18076;52.154;10.570;2023-05-08T02:43:01;7.10;99.90
21312;DHT22;18076;52.154;10.570;2023-05-08T02:45:28;7.10;99.90
21312;DHT22;18076;52.154;10.570;2023-05-08T02:47:59;7.10;99.90
21312;DHT22;18076;52.154;10.570;2023-05-08T02:50:27;7.10;99.90
21312;DHT22;18076;52.154;10.570;2023-05-08T02:52:57;7.10;99.90
21312;DHT22;18076;52.154;10.570;2023-05-08T02:55:36;7.00;99.90
21312;DHT22;18076;52.154;10.570;2023-05-08T02:58:13;6.90;99.90
21312;DHT22;18076;52.154;10.570;2023-05-08T03:00:46;7.00;99.90
21312;DHT22;18076;52.154;10.570;2023-05-08T03:05:39;6.90;99.90
21312;DHT22;18076;52.154;10.570;2023-05-08T03:08:09;6.90;99.90
21312;DHT22;18076;52.154;10.570;2023-05-08T03:10:38;6.90;99.90
21312;DHT22;18076;52.154;10.570;2023-05-08T03:13:05;6.90;99.90
21312;DHT22;18076;52.154;10.570;2023-05-08T03:15:40;6.80;99.90
21312;DHT22;18076;52.154;10.570;2023-05-08T03:18:07;6.80;99.90
21312;DHT22;18076;52.154;10.570;2023-05-08T03:20:35;6.80;99.90
21312;DHT22;18076;52.154;10.570;2023-05-08T03:23:01;6.80;99.90
21312;DHT22;18076;52.154;10.570;2023-05-08T03:25:27;6.80;99.90
21312;DHT22;18076;52.154;10.570;2023-05-08T03:27:54;6.80;99.90
21312;DHT22;18076;52.154;10.570;2023-05-08T03:30:20;6.80;99.90
21312;DHT22;18076;52.154;10.570;2023-05-08T03:32:46;6.80;99.90
21312;DHT22;18076;52.154;10.570;2023-05-08T03:35:13;6.80;99.90
21312;DHT22;18076;52.154;10.570;2023-05-08T03:37:39;6.70;99.90
21312;DHT22;18076;52.154;10.570;2023-05-08T03:40:06;6.80;99.90
21312;DHT22;18076;52.154;10.570;2023-05-08T03:42:32;6.70;99.90
21312;DHT22;18076;52.154;10.570;2023-05-08T03:44:58;6.80;99.90
21312;DHT22;18076;52.154;10.570;2023-05-08T03:47:24;6.80;99.90
21312;DHT22;18076;52.154;10.570;2023-05-08T03:49:51;6.80;99.90
21312;DHT22;18076;52.154;10.570;2023-05-08T03:52:17;6.80;99.90
21312;DHT22;18076;52.154;10.570;2023-05-08T03:54:42;6.80;99.90
21312;DHT22;18076;52.154;10.570;2023-05-08T03:57:08;6.80;99.90
21312;DHT22;18076;52.154;10.570;2023-05-08T03:59:41;6.90;99.90
21312;DHT22;18076;52.154;10.570;2023-05-08T04:04:54;6.90;99.90
21312;DHT22;18076;52.154;10.570;2023-05-08T04:07:26;6.90;99.90
21312;DHT22;18076;52.154;10.570;2023-05-08T04:15:05;7.00;99.90
21312;DHT22;18076;52.154;10.570;2023-05-08T04:17:37;7.10;99.90
21312;DHT22;18076;52.154;10.570;2023-05-08T04:20:04;7.10;99.90
21312;DHT22;18076;52.154;10.570;2023-05-08T04:22:31;7.10;99.90
21312;DHT22;18076;52.154;10.570;2023-05-08T04:24:57;7.10;99.90
21312;DHT22;18076;52.154;10.570;2023-05-08T04:27:24;7.10;99.90
21312;DHT22;18076;52.154;10.570;2023-05-08T04:29:50;7.20;99.90
21312;DHT22;18076;52.154;10.570;2023-05-08T04:32:15;7.20;99.90
21312;DHT22;18076;52.154;10.570;2023-05-08T04:34:41;7.20;99.90
21312;DHT22;18076;52.154;10.570;2023-05-08T04:37:06;7.30;99.90
21312;DHT22;18076;52.154;10.570;2023-05-08T04:39:32;7.30;99.90
21312;DHT22;18076;52.154;10.570;2023-05-08T04:41:57;7.30;99.90
21312;DHT22;18076;52.154;10.570;2023-05-08T04:44:27;7.30;99.90
21312;DHT22;18076;52.154;10.570;2023-05-08T04:46:54;7.40;99.90
21312;DHT22;18076;52.154;10.570;2023-05-08T04:49:19;7.40;99.90
21312;DHT22;18076;52.154;10.570;2023-05-08T04:51:45;7.40;99.90
21312;DHT22;18076;52.154;10.570;2023-05-08T04:54:10;7.50;99.90
21312;DHT22;18076;52.154;10.570;2023-05-08T04:56:36;7.40;99.90
21312;DHT22;18076;52.154;10.570;2023-05-08T04:59:01;7.50;99.90
21312;DHT22;18076;52.154;10.570;2023-05-08T05:01:27;7.50;99.90
21312;DHT22;18076;52.154;10.570;2023-05-08T05:03:52;7.50;99.90
21312;DHT22;18076;52.154;10.570;2023-05-08T05:06:18;7.50;99.90
21312;DHT22;18076;52.154;10.570;2023-05-08T05:08:43;7.50;99.90
21312;DHT22;18076;52.154;10.570;2023-05-08T05:11:09;7.60;99.90
21312;DHT22;18076;52.154;10.570;2023-05-08T05:13:35;7.60;99.90
21312;DHT22;18076;52.154;10.570;2023-05-08T05:16:00;7.60;99.90
21312;DHT22;18076;52.154;10.570;2023-05-08T05:18:26;7.60;99.90
21312;DHT22;18076;52.154;10.570;2023-05-08T05:20:51;7.60;99.90
21312;DHT22;18076;52.154;10.570;2023-05-08T05:23:17;7.50;99.90
21312;DHT22;18076;52.154;10.570;2023-05-08T05:25:42;7.60;99.90
21312;DHT22;18076;52.154;10.570;2023-05-08T05:28:08;7.60;99.90
21312;DHT22;18076;52.154;10.570;2023-05-08T05:30:33;7.70;99.90
21312;DHT22;18076;52.154;10.570;2023-05-08T05:32:59;7.70;99.90
21312;DHT22;18076;52.154;10.570;2023-05-08T05:35:24;7.80;99.90
21312;DHT22;18076;52.154;10.570;2023-05-08T05:37:50;7.90;99.90
21312;DHT22;18076;52.154;10.570;2023-05-08T05:40:16;8.10;99.90
21312;DHT22;18076;52.154;10.570;2023-05-08T05:42:41;8.10;99.90
21312;DHT22;18076;52.154;10.570;2023-05-08T05:45:07;8.20;99.90
21312;DHT22;18076;52.154;10.570;2023-05-08T05:47:33;8.30;99.90
21312;DHT22;18076;52.154;10.570;2023-05-08T05:49:58;8.40;99.90
21312;DHT22;18076;52.154;10.570;2023-05-08T05:52:24;8.50;99.90
21312;DHT22;18076;52.154;10.570;2023-05-08T05:54:49;8.50;99.90
21312;DHT22;18076;52.154;10.570;2023-05-08T05:57:15;8.50;99.90
21312;DHT22;18076;52.154;10.570;2023-05-08T05:59:40;8.50;99.90
21312;DHT22;18076;52.154;10.570;2023-05-08T06:02:06;8.50;99.90
21312;DHT22;18076;52.154;10.570;2023-05-08T06:04:38;8.50;99.90
21312;DHT22;18076;52.154;10.570;2023-05-08T06:07:04;8.50;99.90
21312;DHT22;18076;52.154;10.570;2023-05-08T06:09:29;8.50;99.90
21312;DHT22;18076;52.154;10.570;2023-05-08T06:11:55;8.50;99.90
21312;DHT22;18076;52.154;10.570;2023-05-08T06:14:20;8.60;99.90
21312;DHT22;18076;52.154;10.570;2023-05-08T06:16:46;8.70;99.90
21312;DHT22;18076;52.154;10.570;2023-05-08T06:19:12;8.70;99.90
21312;DHT22;18076;52.154;10.570;2023-05-08T06:21:37;8.70;99.90
21312;DHT22;18076;52.154;10.570;2023-05-08T06:24:04;8.80;99.90
21312;DHT22;18076;52.154;10.570;2023-05-08T06:26:30;9.00;99.90
21312;DHT22;18076;52.154;10.570;2023-05-08T06:28:56;9.10;99.90
21312;DHT22;18076;52.154;10.570;2023-05-08T06:31:21;9.30;99.90
21312;DHT22;18076;52.154;10.570;2023-05-08T06:33:47;9.30;99.90
21312;DHT22;18076;52.154;10.570;2023-05-08T06:36:12;9.20;99.90
21312;DHT22;18076;52.154;10.570;2023-05-08T06:38:38;9.20;99.90
21312;DHT22;18076;52.154;10.570;2023-05-08T06:41:03;9.40;99.90
21312;DHT22;18076;52.154;10.570;2023-05-08T06:43:29;9.50;99.90
21312;DHT22;18076;52.154;10.570;2023-05-08T06:45:54;9.60;99.90
21312;DHT22;18076;52.154;10.570;2023-05-08T06:48:20;9.70;99.90
21312;DHT22;18076;52.154;10.570;2023-05-08T06:50:46;9.80;99.90
21312;DHT22;18076;52.154;10.570;2023-05-08T06:53:12;9.80;99.90
21312;DHT22;18076;52.154;10.570;2023-05-08T06:55:37;9.90;99.90
21312;DHT22;18076;52.154;10.570;2023-05-08T06:58:03;10.10;99.90
21312;DHT22;18076;52.154;10.570;2023-05-08T07:00:29;10.10;99.90
21312;DHT22;18076;52.154;10.570;2023-05-08T07:02:54;10.30;99.90
21312;DHT22;18076;52.154;10.570;2023-05-08T07:05:20;10.50;99.90
21312;DHT22;18076;52.154;10.570;2023-05-08T07:07:45;10.50;99.90
21312;DHT22;18076;52.154;10.570;2023-05-08T07:10:11;10.60;99.90
21312;DHT22;18076;52.154;10.570;2023-05-08T07:12:36;10.60;99.90
21312;DHT22;18076;52.154;10.570;2023-05-08T07:15:02;10.80;99.90
21312;DHT22;18076;52.154;10.570;2023-05-08T07:17:28;10.70;99.90
21312;DHT22;18076;52.154;10.570;2023-05-08T07:19:55;10.70;99.90
21312;DHT22;18076;52.154;10.570;2023-05-08T07:22:20;10.80;99.90
21312;DHT22;18076;52.154;10.570;2023-05-08T07:24:46;10.80;99.90
21312;DHT22;18076;52.154;10.570;2023-05-08T07:27:11;10.80;99.90
21312;DHT22;18076;52.154;10.570;2023-05-08T07:29:38;10.80;99.90
21312;DHT22;18076;52.154;10.570;2023-05-08T07:32:08;10.90;99.90
21312;DHT22;18076;52.154;10.570;2023-05-08T07:34:34;11.00;99.90
21312;DHT22;18076;52.154;10.570;2023-05-08T07:36:59;11.00;99.90
21312;DHT22;18076;52.154;10.570;2023-05-08T07:39:25;11.10;99.90
21312;DHT22;18076;52.154;10.570;2023-05-08T07:41:50;11.10;99.90
21312;DHT22;18076;52.154;10.570;2023-05-08T07:44:16;11.10;99.90
21312;DHT22;18076;52.154;10.570;2023-05-08T07:46:41;11.20;99.90
21312;DHT22;18076;52.154;10.570;2023-05-08T07:49:07;11.30;99.90
21312;DHT22;18076;52.154;10.570;2023-05-08T07:51:32;11.30;99.90
21312;DHT22;18076;52.154;10.570;2023-05-08T07:53:58;11.30;99.90
21312;DHT22;18076;52.154;10.570;2023-05-08T07:56:24;11.30;99.90
21312;DHT22;18076;52.154;10.570;2023-05-08T07:58:50;11.40;99.90
21312;DHT22;18076;52.154;10.570;2023-05-08T08:01:15;11.40;99.90
21312;DHT22;18076;52.154;10.570;2023-05-08T08:03:44;11.70;99.90
21312;DHT22;18076;52.154;10.570;2023-05-08T08:06:10;12.00;99.90
21312;DHT22;18076;52.154;10.570;2023-05-08T08:08:36;12.30;99.90
21312;DHT22;18076;52.154;10.570;2023-05-08T08:11:01;12.40;99.90
21312;DHT22;18076;52.154;10.570;2023-05-08T08:13:27;12.70;99.90
21312;DHT22;18076;52.154;10.570;2023-05-08T08:15:52;13.00;99.90
21312;DHT22;18076;52.154;10.570;2023-05-08T08:18:18;13.40;99.90
21312;DHT22;18076;52.154;10.570;2023-05-08T08:20:43;13.80;99.90
21312;DHT22;18076;52.154;10.570;2023-05-08T08:23:09;13.90;99.90
21312;DHT22;18076;52.154;10.570;2023-05-08T08:25:34;14.10;99.90
21312;DHT22;18076;52.154;10.570;2023-05-08T08:28:00;14.40;99.90
21312;DHT22;18076;52.154;10.570;2023-05-08T08:30:25;14.40;99.90
21312;DHT22;18076;52.154;10.570;2023-05-08T08:32:51;14.40;99.90
21312;DHT22;18076;52.154;10.570;2023-05-08T08:35:16;14.50;99.90
21312;DHT22;18076;52.154;10.570;2023-05-08T08:37:42;14.40;99.90
21312;DHT22;18076;52.154;10.570;2023-05-08T08:40:08;14.00;99.90
21312;DHT22;18076;52.154;10.570;2023-05-08T08:42:33;13.90;99.90
21312;DHT22;18076;52.154;10.570;2023-05-08T08:44:59;13.90;99.90
21312;DHT22;18076;52.154;10.570;2023-05-08T08:47:28;14.20;99.90
21312;DHT22;18076;52.154;10.570;2023-05-08T08:49:54;14.60;99.90
21312;DHT22;18076;52.154;10.570;2023-05-08T08:52:38;14.70;99.90
21312;DHT22;18076;52.154;10.570;2023-05-08T08:55:05;14.60;99.90
21312;DHT22;18076;52.154;10.570;2023-05-08T08:57:33;14.60;99.90
21312;DHT22;18076;52.154;10.570;2023-05-08T09:00:00;14.50;99.90
21312;DHT22;18076;52.154;10.570;2023-05-08T09:02:28;14.60;99.90
21312;DHT22;18076;52.154;10.570;2023-05-08T09:04:55;14.70;99.90
21312;DHT22;18076;52.154;10.570;2023-05-08T09:07:21;14.30;99.90
21312;DHT22;18076;52.154;10.570;2023-05-08T09:09:47;14.30;99.90
21312;DHT22;18076;52.154;10.570;2023-05-08T09:12:13;14.60;99.90
21312;DHT22;18076;52.154;10.570;2023-05-08T09:14:39;14.70;99.90
21312;DHT22;18076;52.154;10.570;2023-05-08T09:17:05;14.90;99.90
21312;DHT22;18076;52.154;10.570;2023-05-08T09:19:30;14.90;99.90
21312;DHT22;18076;52.154;10.570;2023-05-08T09:21:58;15.00;99.90
21312;DHT22;18076;52.154;10.570;2023-05-08T09:24:24;15.00;99.90
21312;DHT22;18076;52.154;10.570;2023-05-08T09:26:49;15.10;99.90
21312;DHT22;18076;52.154;10.570;2023-05-08T09:29:18;14.90;99.90
21312;DHT22;18076;52.154;10.570;2023-05-08T09:31:49;14.90;99.90
21312;DHT22;18076;52.154;10.570;2023-05-08T09:34:25;14.80;99.90
21312;DHT22;18076;52.154;10.570;2023-05-08T09:39:29;14.90;99.90
21312;DHT22;18076;52.154;10.570;2023-05-08T09:42:02;15.30;99.90
21312;DHT22;18076;52.154;10.570;2023-05-08T09:44:28;15.50;99.90
21312;DHT22;18076;52.154;10.570;2023-05-08T09:49:35;15.20;99.90
21312;DHT22;18076;52.154;10.570;2023-05-08T09:52:02;15.10;99.90
21312;DHT22;18076;52.154;10.570;2023-05-08T09:54:27;15.10;99.90
21312;DHT22;18076;52.154;10.570;2023-05-08T09:56:53;15.10;99.90
21312;DHT22;18076;52.154;10.570;2023-05-08T09:59:23;15.20;99.90
21312;DHT22;18076;52.154;10.570;2023-05-08T10:01:51;15.50;99.90
21312;DHT22;18076;52.154;10.570;2023-05-08T10:04:29;15.70;99.90
21312;DHT22;18076;52.154;10.570;2023-05-08T10:06:58;15.70;99.90
21312;DHT22;18076;52.154;10.570;2023-05-08T10:09:23;16.00;99.90
21312;DHT22;18076;52.154;10.570;2023-05-08T10:11:49;15.90;99.90
21312;DHT22;18076;52.154;10.570;2023-05-08T10:14:20;16.10;99.90
21312;DHT22;18076;52.154;10.570;2023-05-08T10:16:47;16.20;99.90
21312;DHT22;18076;52.154;10.570;2023-05-08T10:19:17;16.10;99.90
21312;DHT22;18076;52.154;10.570;2023-05-08T10:21:47;16.10;99.90
21312;DHT22;18076;52.154;10.570;2023-05-08T10:24:21;16.20;99.90
21312;DHT22;18076;52.154;10.570;2023-05-08T10:26:58;16.30;99.90
21312;DHT22;18076;52.154;10.570;2023-05-08T10:29:41;16.60;99.90
21312;DHT22;18076;52.154;10.570;2023-05-08T10:32:10;16.60;99.90
21312;DHT22;18076;52.154;10.570;2023-05-08T10:34:39;16.70;99.90
21312;DHT22;18076;52.154;10.570;2023-05-08T10:37:07;16.70;99.90
21312;DHT22;18076;52.154;10.570;2023-05-08T10:39:33;16.50;99.90
21312;DHT22;18076;52.154;10.570;2023-05-08T10:41:59;16.60;99.90
21312;DHT22;18076;52.154;10.570;2023-05-08T10:44:25;16.70;99.90
21312;DHT22;18076;52.154;10.570;2023-05-08T10:46:56;16.80;99.90
21312;DHT22;18076;52.154;10.570;2023-05-08T10:57:15;16.40;99.90
21312;DHT22;18076;52.154;10.570;2023-05-08T10:59:44;16.50;99.90
21312;DHT22;18076;52.154;10.570;2023-05-08T11:02:11;16.40;99.90
21312;DHT22;18076;52.154;10.570;2023-05-08T11:04:36;16.50;99.90
21312;DHT22;18076;52.154;10.570;2023-05-08T11:07:02;16.60;99.90
21312;DHT22;18076;52.154;10.570;2023-05-08T11:14:52;16.80;99.90
21312;DHT22;18076;52.154;10.570;2023-05-08T11:17:27;16.90;99.90
21312;DHT22;18076;52.154;10.570;2023-05-08T11:19:58;16.80;99.90
21312;DHT22;18076;52.154;10.570;2023-05-08T11:22:25;16.80;99.90
21312;DHT22;18076;52.154;10.570;2023-05-08T11:24:56;17.00;99.90
21312;DHT22;18076;52.154;10.570;2023-05-08T11:27:32;17.00;99.90
21312;DHT22;18076;52.154;10.570;2023-05-08T11:40:43;17.40;99.90
21312;DHT22;18076;52.154;10.570;2023-05-08T11:43:19;17.70;99.90
21312;DHT22;18076;52.154;10.570;2023-05-08T11:45:48;17.70;99.90
21312;DHT22;18076;52.154;10.570;2023-05-08T11:48:15;17.50;99.90
21312;DHT22;18076;52.154;10.570;2023-05-08T11:51:01;17.40;99.90
21312;DHT22;18076;52.154;10.570;2023-05-08T11:53:27;17.50;99.90
21312;DHT22;18076;52.154;10.570;2023-05-08T11:55:54;17.50;99.90
21312;DHT22;18076;52.154;10.570;2023-05-08T11:58:20;17.60;99.90
21312;DHT22;18076;52.154;10.570;2023-05-08T12:00:46;17.70;99.90
21312;DHT22;18076;52.154;10.570;2023-05-08T12:03:12;17.70;99.90
21312;DHT22;18076;52.154;10.570;2023-05-08T12:05:38;18.00;99.90
21312;DHT22;18076;52.154;10.570;2023-05-08T12:08:05;18.00;99.90
21312;DHT22;18076;52.154;10.570;2023-05-08T12:10:30;18.10;99.90
21312;DHT22;18076;52.154;10.570;2023-05-08T12:12:56;18.10;99.90
21312;DHT22;18076;52.154;10.570;2023-05-08T12:15:21;18.20;99.90
21312;DHT22;18076;52.154;10.570;2023-05-08T12:17:47;18.10;99.90
21312;DHT22;18076;52.154;10.570;2023-05-08T12:20:16;18.00;99.90
21312;DHT22;18076;52.154;10.570;2023-05-08T12:22:48;18.00;99.90
21312;DHT22;18076;52.154;10.570;2023-05-08T12:25:15;17.90;99.90
21312;DHT22;18076;52.154;10.570;2023-05-08T12:27:41;18.00;99.90
21312;DHT22;18076;52.154;10.570;2023-05-08T12:30:08;18.10;99.90
21312;DHT22;18076;52.154;10.570;2023-05-08T12:32:39;18.10;99.90
21312;DHT22;18076;52.154;10.570;2023-05-08T12:35:06;18.20;99.90
21312;DHT22;18076;52.154;10.570;2023-05-08T12:37:32;18.20;99.90
21312;DHT22;18076;52.154;10.570;2023-05-08T12:39:58;18.10;99.90
21312;DHT22;18076;52.154;10.570;2023-05-08T12:42:42;18.10;99.90
21312;DHT22;18076;52.154;10.570;2023-05-08T12:45:08;18.20;99.90
21312;DHT22;18076;52.154;10.570;2023-05-08T12:47:33;18.20;99.90
21312;DHT22;18076;52.154;10.570;2023-05-08T12:49:59;18.20;99.90
21312;DHT22;18076;52.154;10.570;2023-05-08T12:52:24;18.30;99.90
21312;DHT22;18076;52.154;10.570;2023-05-08T12:54:53;18.30;99.90
21312;DHT22;18076;52.154;10.570;2023-05-08T12:57:18;18.30;99.90
21312;DHT22;18076;52.154;10.570;2023-05-08T12:59:46;18.30;99.90
21312;DHT22;18076;52.154;10.570;2023-05-08T13:02:16;18.50;99.90
21312;DHT22;18076;52.154;10.570;2023-05-08T13:04:41;18.60;99.90
21312;DHT22;18076;52.154;10.570;2023-05-08T13:07:07;18.60;99.90
21312;DHT22;18076;52.154;10.570;2023-05-08T13:09:33;18.80;99.90
21312;DHT22;18076;52.154;10.570;2023-05-08T13:11:59;18.90;99.90
21312;DHT22;18076;52.154;10.570;2023-05-08T13:14:25;18.90;99.90
21312;DHT22;18076;52.154;10.570;2023-05-08T13:16:50;19.10;99.90
21312;DHT22;18076;52.154;10.570;2023-05-08T13:19:16;19.00;99.90
21312;DHT22;18076;52.154;10.570;2023-05-08T13:21:42;18.80;99.90
21312;DHT22;18076;52.154;10.570;2023-05-08T13:24:15;18.70;99.90
21312;DHT22;18076;52.154;10.570;2023-05-08T13:26:40;18.80;99.90
21312;DHT22;18076;52.154;10.570;2023-05-08T13:29:06;18.90;99.90
21312;DHT22;18076;52.154;10.570;2023-05-08T13:31:31;18.80;99.90
21312;DHT22;18076;52.154;10.570;2023-05-08T13:33:57;18.90;99.90
21312;DHT22;18076;52.154;10.570;2023-05-08T13:36:22;18.90;99.90
21312;DHT22;18076;52.154;10.570;2023-05-08T13:38:49;18.90;99.90
21312;DHT22;18076;52.154;10.570;2023-05-08T13:41:15;18.90;99.90
21312;DHT22;18076;52.154;10.570;2023-05-08T13:43:41;19.00;99.90
21312;DHT22;18076;52.154;10.570;2023-05-08T13:46:06;19.10;99.90
21312;DHT22;18076;52.154;10.570;2023-05-08T13:48:32;19.00;99.90
21312;DHT22;18076;52.154;10.570;2023-05-08T13:50:57;18.90;99.90
21312;DHT22;18076;52.154;10.570;2023-05-08T13:53:23;18.90;99.90
21312;DHT22;18076;52.154;10.570;2023-05-08T13:55:49;19.00;99.90
21312;DHT22;18076;52.154;10.570;2023-05-08T13:58:14;19.30;99.90
21312;DHT22;18076;52.154;10.570;2023-05-08T14:00:40;19.40;99.90
21312;DHT22;18076;52.154;10.570;2023-05-08T14:03:05;19.30;99.90
21312;DHT22;18076;52.154;10.570;2023-05-08T14:05:31;19.20;99.90
21312;DHT22;18076;52.154;10.570;2023-05-08T14:07:56;19.20;99.90
21312;DHT22;18076;52.154;10.570;2023-05-08T14:10:22;19.10;99.90
21312;DHT22;18076;52.154;10.570;2023-05-08T14:12:47;19.10;99.90
21312;DHT22;18076;52.154;10.570;2023-05-08T14:15:13;19.00;99.90
21312;DHT22;18076;52.154;10.570;2023-05-08T14:17:39;19.00;99.90
21312;DHT22;18076;52.154;10.570;2023-05-08T14:20:04;19.10;99.90
21312;DHT22;18076;52.154;10.570;2023-05-08T14:22:30;19.10;99.90
21312;DHT22;18076;52.154;10.570;2023-05-08T14:24:56;19.10;99.90
21312;DHT22;18076;52.154;10.570;2023-05-08T14:27:21;19.10;99.90
21312;DHT22;18076;52.154;10.570;2023-05-08T14:29:47;19.10;99.90
21312;DHT22;18076;52.154;10.570;2023-05-08T14:32:13;19.40;99.90
21312;DHT22;18076;52.154;10.570;2023-05-08T14:34:39;19.50;99.90
21312;DHT22;18076;52.154;10.570;2023-05-08T14:37:04;19.40;99.90
21312;DHT22;18076;52.154;10.570;2023-05-08T14:39:30;19.40;99.90
21312;DHT22;18076;52.154;10.570;2023-05-08T14:41:55;19.30;99.90
21312;DHT22;18076;52.154;10.570;2023-05-08T14:44:21;19.40;99.90
21312;DHT22;18076;52.154;10.570;2023-05-08T14:46:46;19.40;99.90
21312;DHT22;18076;52.154;10.570;2023-05-08T14:49:12;19.50;99.90
21312;DHT22;18076;52.154;10.570;2023-05-08T14:51:37;19.50;99.90
21312;DHT22;18076;52.154;10.570;2023-05-08T14:54:03;19.30;99.90
21312;DHT22;18076;52.154;10.570;2023-05-08T14:56:29;19.30;99.90
21312;DHT22;18076;52.154;10.570;2023-05-08T14:58:54;19.20;99.90
21312;DHT22;18076;52.154;10.570;2023-05-08T15:01:20;19.10;99.90
21312;DHT22;18076;52.154;10.570;2023-05-08T15:03:46;19.20;99.90
21312;DHT22;18076;52.154;10.570;2023-05-08T15:06:18;19.20;99.90
21312;DHT22;18076;52.154;10.570;2023-05-08T15:08:44;19.20;99.90
21312;DHT22;18076;52.154;10.570;2023-05-08T15:11:09;19.20;99.90
21312;DHT22;18076;52.154;10.570;2023-05-08T15:13:35;19.20;99.90
21312;DHT22;18076;52.154;10.570;2023-05-08T15:16:00;19.30;99.90
21312;DHT22;18076;52.154;10.570;2023-05-08T15:18:26;19.20;99.90
21312;DHT22;18076;52.154;10.570;2023-05-08T15:20:52;19.00;99.90
21312;DHT22;18076;52.154;10.570;2023-05-08T15:23:18;19.00;99.90
21312;DHT22;18076;52.154;10.570;2023-05-08T15:25:45;19.00;99.90
21312;DHT22;18076;52.154;10.570;2023-05-08T15:28:10;19.00;99.90
21312;DHT22;18076;52.154;10.570;2023-05-08T15:30:36;18.90;99.90
21312;DHT22;18076;52.154;10.570;2023-05-08T15:33:02;18.90;99.90
21312;DHT22;18076;52.154;10.570;2023-05-08T15:35:27;18.90;99.90
21312;DHT22;18076;52.154;10.570;2023-05-08T15:37:53;18.90;99.90
21312;DHT22;18076;52.154;10.570;2023-05-08T15:40:30;18.90;99.90
21312;DHT22;18076;52.154;10.570;2023-05-08T15:42:56;19.10;99.90
21312;DHT22;18076;52.154;10.570;2023-05-08T15:45:21;19.00;99.90
21312;DHT22;18076;52.154;10.570;2023-05-08T15:47:47;18.90;99.90
21312;DHT22;18076;52.154;10.570;2023-05-08T15:50:12;18.80;99.90
21312;DHT22;18076;52.154;10.570;2023-05-08T15:52:39;18.70;99.90
21312;DHT22;18076;52.154;10.570;2023-05-08T15:55:04;18.80;99.90
21312;DHT22;18076;52.154;10.570;2023-05-08T15:57:30;18.80;99.90
21312;DHT22;18076;52.154;10.570;2023-05-08T15:59:55;18.70;99.90
21312;DHT22;18076;52.154;10.570;2023-05-08T16:02:21;18.80;99.90
21312;DHT22;18076;52.154;10.570;2023-05-08T16:04:46;18.80;99.90
21312;DHT22;18076;52.154;10.570;2023-05-08T16:07:12;18.70;99.90
21312;DHT22;18076;52.154;10.570;2023-05-08T16:09:37;18.70;99.90